GLD weather

Public forecast

Using degrees Fahrenheit for public forecast. Weather courtesy of forecast.io.

Current aviation weather report (METAR) for Renner Field-Goodland Municipal Airport

Retrieved 2020/08/13 21:53 UTC (57 minutes ago):

KGLD 132153Z AUTO 13006KT 10SM CLR 32/17 A3000 RMK AO2 PK WND 01033/2114 LTG DSNT SW TSE15 PRESFR SLP107 T03170172

Aviation forecast (TAF) for Renner Field-Goodland Municipal Airport

Retrieved 2020/08/13 18:22 UTC (4 hours ago):

TAF KGLD 131720Z 1318/1418 VRB06KT P6SM SKC FM132000 09007KT P6SM VCTS SCT100CB TEMPO 1320/1322 VRB30G45KT -TSRA BKN090CB FM132300 12010KT P6SM FEW100 SCT250 FM140500 16009KT P6SM SKC FM141200 20008KT P6SM FEW002 FEW150 FM141600 25009KT P6SM SKC FM141700 32009KT P6SM SKC